sensor_id;sensor_type;location;lat;lon;timestamp;P1;durP1;ratioP1;P2;durP2;ratioP2
26562;SDS011;14217;50.986;5.826;2023-02-20T00:02:11;1.60;;;0.70;;
26562;SDS011;14217;50.986;5.826;2023-02-20T00:07:13;0.95;;;0.70;;
26562;SDS011;14217;50.986;5.826;2023-02-20T00:12:15;1.05;;;0.85;;
26562;SDS011;14217;50.986;5.826;2023-02-20T00:17:17;1.20;;;0.80;;
26562;SDS011;14217;50.986;5.826;2023-02-20T00:22:23;0.93;;;0.80;;
26562;SDS011;14217;50.986;5.826;2023-02-20T00:27:25;0.65;;;0.60;;
26562;SDS011;14217;50.986;5.826;2023-02-20T00:32:27;1.38;;;0.95;;
26562;SDS011;14217;50.986;5.826;2023-02-20T00:37:29;0.88;;;0.57;;
26562;SDS011;14217;50.986;5.826;2023-02-20T00:42:31;1.40;;;0.70;;
26562;SDS011;14217;50.986;5.826;2023-02-20T00:47:33;1.13;;;1.02;;
26562;SDS011;14217;50.986;5.826;2023-02-20T00:52:35;1.65;;;1.13;;
26562;SDS011;14217;50.986;5.826;2023-02-20T00:57:39;1.73;;;0.95;;
26562;SDS011;14217;50.986;5.826;2023-02-20T01:02:41;2.67;;;1.17;;
26562;SDS011;14217;50.986;5.826;2023-02-20T01:07:43;2.30;;;1.17;;
26562;SDS011;14217;50.986;5.826;2023-02-20T01:12:46;1.05;;;0.80;;
26562;SDS011;14217;50.986;5.826;2023-02-20T01:17:48;1.95;;;1.00;;
26562;SDS011;14217;50.986;5.826;2023-02-20T01:22:50;1.48;;;1.23;;
26562;SDS011;14217;50.986;5.826;2023-02-20T01:27:51;3.92;;;1.20;;
26562;SDS011;14217;50.986;5.826;2023-02-20T01:32:53;0.70;;;0.70;;
26562;SDS011;14217;50.986;5.826;2023-02-20T01:37:56;1.05;;;0.60;;
26562;SDS011;14217;50.986;5.826;2023-02-20T01:43:00;2.88;;;0.82;;
26562;SDS011;14217;50.986;5.826;2023-02-20T01:48:03;2.15;;;1.00;;
26562;SDS011;14217;50.986;5.826;2023-02-20T01:53:13;3.40;;;1.15;;
26562;SDS011;14217;50.986;5.826;2023-02-20T01:58:26;1.30;;;1.05;;
26562;SDS011;14217;50.986;5.826;2023-02-20T02:03:32;0.82;;;0.75;;
26562;SDS011;14217;50.986;5.826;2023-02-20T02:08:38;1.08;;;0.90;;
26562;SDS011;14217;50.986;5.826;2023-02-20T02:13:42;1.05;;;0.63;;
26562;SDS011;14217;50.986;5.826;2023-02-20T02:29:40;2.53;;;0.98;;
26562;SDS011;14217;50.986;5.826;2023-02-20T02:45:22;1.08;;;0.85;;
26562;SDS011;14217;50.986;5.826;2023-02-20T02:50:35;3.17;;;0.70;;
26562;SDS011;14217;50.986;5.826;2023-02-20T02:55:40;1.15;;;0.68;;
26562;SDS011;14217;50.986;5.826;2023-02-20T03:00:44;0.63;;;0.57;;
26562;SDS011;14217;50.986;5.826;2023-02-20T03:10:53;2.05;;;0.98;;
26562;SDS011;14217;50.986;5.826;2023-02-20T03:15:55;0.73;;;0.55;;
26562;SDS011;14217;50.986;5.826;2023-02-20T03:21:00;1.05;;;0.75;;
26562;SDS011;14217;50.986;5.826;2023-02-20T03:26:10;0.60;;;0.60;;
26562;SDS011;14217;50.986;5.826;2023-02-20T03:31:40;1.13;;;0.77;;
26562;SDS011;14217;50.986;5.826;2023-02-20T03:36:50;1.55;;;0.52;;
26562;SDS011;14217;50.986;5.826;2023-02-20T03:42:17;0.77;;;0.63;;
26562;SDS011;14217;50.986;5.826;2023-02-20T03:47:41;1.00;;;0.50;;
26562;SDS011;14217;50.986;5.826;2023-02-20T03:52:45;0.70;;;0.60;;
26562;SDS011;14217;50.986;5.826;2023-02-20T03:57:48;0.85;;;0.68;;
26562;SDS011;14217;50.986;5.826;2023-02-20T04:02:53;1.27;;;0.70;;
26562;SDS011;14217;50.986;5.826;2023-02-20T04:08:10;1.08;;;0.55;;
26562;SDS011;14217;50.986;5.826;2023-02-20T04:13:16;5.85;;;0.52;;
26562;SDS011;14217;50.986;5.826;2023-02-20T04:18:19;0.63;;;0.40;;
26562;SDS011;14217;50.986;5.826;2023-02-20T04:23:23;0.80;;;0.35;;
26562;SDS011;14217;50.986;5.826;2023-02-20T04:28:26;1.15;;;0.75;;
26562;SDS011;14217;50.986;5.826;2023-02-20T04:33:28;1.63;;;0.60;;
26562;SDS011;14217;50.986;5.826;2023-02-20T04:38:31;1.05;;;0.50;;
26562;SDS011;14217;50.986;5.826;2023-02-20T04:43:33;1.13;;;0.68;;
26562;SDS011;14217;50.986;5.826;2023-02-20T04:48:35;1.27;;;0.50;;
26562;SDS011;14217;50.986;5.826;2023-02-20T04:53:37;0.75;;;0.32;;
26562;SDS011;14217;50.986;5.826;2023-02-20T04:58:39;1.10;;;0.50;;
26562;SDS011;14217;50.986;5.826;2023-02-20T05:03:41;2.03;;;0.90;;
26562;SDS011;14217;50.986;5.826;2023-02-20T05:08:43;0.35;;;0.35;;
26562;SDS011;14217;50.986;5.826;2023-02-20T05:13:44;1.20;;;0.57;;
26562;SDS011;14217;50.986;5.826;2023-02-20T05:18:46;0.47;;;0.30;;
26562;SDS011;14217;50.986;5.826;2023-02-20T05:23:48;11.80;;;1.05;;
26562;SDS011;14217;50.986;5.826;2023-02-20T05:28:50;0.63;;;0.38;;
26562;SDS011;14217;50.986;5.826;2023-02-20T05:33:53;1.75;;;0.60;;
26562;SDS011;14217;50.986;5.826;2023-02-20T05:38:55;1.35;;;0.50;;
26562;SDS011;14217;50.986;5.826;2023-02-20T05:43:57;2.97;;;0.47;;
26562;SDS011;14217;50.986;5.826;2023-02-20T05:49:00;0.93;;;0.80;;
26562;SDS011;14217;50.986;5.826;2023-02-20T05:54:02;1.95;;;0.38;;
26562;SDS011;14217;50.986;5.826;2023-02-20T05:59:04;0.65;;;0.57;;
26562;SDS011;14217;50.986;5.826;2023-02-20T06:04:06;0.50;;;0.43;;
26562;SDS011;14217;50.986;5.826;2023-02-20T06:09:09;3.30;;;1.00;;
26562;SDS011;14217;50.986;5.826;2023-02-20T06:14:14;0.68;;;0.43;;
26562;SDS011;14217;50.986;5.826;2023-02-20T06:19:20;1.23;;;0.63;;
26562;SDS011;14217;50.986;5.826;2023-02-20T06:24:24;1.65;;;0.40;;
26562;SDS011;14217;50.986;5.826;2023-02-20T06:29:26;1.90;;;1.00;;
26562;SDS011;14217;50.986;5.826;2023-02-20T06:34:29;2.15;;;0.98;;
26562;SDS011;14217;50.986;5.826;2023-02-20T06:39:33;6.20;;;1.52;;
26562;SDS011;14217;50.986;5.826;2023-02-20T06:44:35;0.98;;;0.60;;
26562;SDS011;14217;50.986;5.826;2023-02-20T06:49:37;3.97;;;0.93;;
26562;SDS011;14217;50.986;5.826;2023-02-20T06:54:39;1.50;;;0.88;;
26562;SDS011;14217;50.986;5.826;2023-02-20T06:59:43;7.78;;;0.95;;
26562;SDS011;14217;50.986;5.826;2023-02-20T07:04:47;1.55;;;0.90;;
26562;SDS011;14217;50.986;5.826;2023-02-20T07:09:50;2.17;;;1.02;;
26562;SDS011;14217;50.986;5.826;2023-02-20T07:14:52;2.30;;;0.90;;
26562;SDS011;14217;50.986;5.826;2023-02-20T07:19:54;2.03;;;1.38;;
26562;SDS011;14217;50.986;5.826;2023-02-20T07:24:56;1.35;;;0.52;;
26562;SDS011;14217;50.986;5.826;2023-02-20T07:29:57;2.50;;;0.88;;
26562;SDS011;14217;50.986;5.826;2023-02-20T07:34:59;6.32;;;1.35;;
26562;SDS011;14217;50.986;5.826;2023-02-20T07:40:07;2.25;;;1.10;;
26562;SDS011;14217;50.986;5.826;2023-02-20T07:45:10;2.38;;;1.00;;
26562;SDS011;14217;50.986;5.826;2023-02-20T07:50:13;3.65;;;1.20;;
26562;SDS011;14217;50.986;5.826;2023-02-20T07:55:16;6.43;;;1.27;;
26562;SDS011;14217;50.986;5.826;2023-02-20T08:00:19;3.05;;;1.30;;
26562;SDS011;14217;50.986;5.826;2023-02-20T08:05:22;1.60;;;0.90;;
26562;SDS011;14217;50.986;5.826;2023-02-20T08:10:25;1.67;;;0.88;;
26562;SDS011;14217;50.986;5.826;2023-02-20T08:15:29;7.68;;;0.90;;
26562;SDS011;14217;50.986;5.826;2023-02-20T08:20:31;2.75;;;1.65;;
26562;SDS011;14217;50.986;5.826;2023-02-20T08:25:33;3.50;;;1.23;;
26562;SDS011;14217;50.986;5.826;2023-02-20T08:30:36;1.38;;;0.90;;
26562;SDS011;14217;50.986;5.826;2023-02-20T08:35:38;3.58;;;0.80;;
26562;SDS011;14217;50.986;5.826;2023-02-20T08:40:40;1.42;;;1.10;;
26562;SDS011;14217;50.986;5.826;2023-02-20T08:45:42;1.25;;;0.80;;
26562;SDS011;14217;50.986;5.826;2023-02-20T08:50:44;0.73;;;0.73;;
26562;SDS011;14217;50.986;5.826;2023-02-20T08:55:47;2.20;;;1.17;;
26562;SDS011;14217;50.986;5.826;2023-02-20T09:00:50;1.88;;;1.55;;
26562;SDS011;14217;50.986;5.826;2023-02-20T09:05:52;2.35;;;1.20;;
26562;SDS011;14217;50.986;5.826;2023-02-20T09:10:54;4.00;;;1.67;;
26562;SDS011;14217;50.986;5.826;2023-02-20T09:15:56;2.05;;;1.30;;
26562;SDS011;14217;50.986;5.826;2023-02-20T09:20:58;2.45;;;1.27;;
26562;SDS011;14217;50.986;5.826;2023-02-20T09:26:00;7.70;;;1.73;;
26562;SDS011;14217;50.986;5.826;2023-02-20T09:31:02;1.42;;;1.27;;
26562;SDS011;14217;50.986;5.826;2023-02-20T09:36:05;1.45;;;1.35;;
26562;SDS011;14217;50.986;5.826;2023-02-20T09:41:08;2.20;;;0.93;;
26562;SDS011;14217;50.986;5.826;2023-02-20T09:46:23;4.10;;;1.30;;
26562;SDS011;14217;50.986;5.826;2023-02-20T09:51:27;5.35;;;1.05;;
26562;SDS011;14217;50.986;5.826;2023-02-20T09:56:33;1.67;;;1.25;;
26562;SDS011;14217;50.986;5.826;2023-02-20T10:01:48;2.90;;;1.27;;
26562;SDS011;14217;50.986;5.826;2023-02-20T10:06:56;2.55;;;1.17;;
26562;SDS011;14217;50.986;5.826;2023-02-20T10:22:38;4.82;;;1.98;;
26562;SDS011;14217;50.986;5.826;2023-02-20T10:27:55;3.33;;;1.23;;
26562;SDS011;14217;50.986;5.826;2023-02-20T10:38:34;3.15;;;1.67;;
26562;SDS011;14217;50.986;5.826;2023-02-20T10:49:06;1.58;;;1.00;;
26562;SDS011;14217;50.986;5.826;2023-02-20T10:54:58;2.35;;;1.48;;
26562;SDS011;14217;50.986;5.826;2023-02-20T10:59:51;3.92;;;1.20;;
26562;SDS011;14217;50.986;5.826;2023-02-20T11:05:02;1.50;;;0.95;;
26562;SDS011;14217;50.986;5.826;2023-02-20T11:10:11;2.78;;;1.23;;
26562;SDS011;14217;50.986;5.826;2023-02-20T11:15:15;3.53;;;1.48;;
26562;SDS011;14217;50.986;5.826;2023-02-20T11:25:46;1.38;;;1.13;;
26562;SDS011;14217;50.986;5.826;2023-02-20T11:30:49;1.73;;;1.13;;
26562;SDS011;14217;50.986;5.826;2023-02-20T11:36:08;1.88;;;1.08;;
26562;SDS011;14217;50.986;5.826;2023-02-20T11:41:16;1.42;;;1.15;;
26562;SDS011;14217;50.986;5.826;2023-02-20T11:46:26;1.95;;;1.23;;
26562;SDS011;14217;50.986;5.826;2023-02-20T11:51:30;1.40;;;1.13;;
26562;SDS011;14217;50.986;5.826;2023-02-20T12:12:33;3.78;;;1.63;;
26562;SDS011;14217;50.986;5.826;2023-02-20T12:17:42;4.10;;;1.75;;
26562;SDS011;14217;50.986;5.826;2023-02-20T12:23:35;1.52;;;1.08;;
26562;SDS011;14217;50.986;5.826;2023-02-20T12:28:21;3.00;;;1.70;;
26562;SDS011;14217;50.986;5.826;2023-02-20T12:50:36;3.92;;;2.55;;
26562;SDS011;14217;50.986;5.826;2023-02-20T13:01:06;3.35;;;3.05;;
26562;SDS011;14217;50.986;5.826;2023-02-20T13:06:13;4.00;;;3.03;;
26562;SDS011;14217;50.986;5.826;2023-02-20T13:11:22;8.57;;;3.05;;
26562;SDS011;14217;50.986;5.826;2023-02-20T13:21:34;3.53;;;2.60;;
26562;SDS011;14217;50.986;5.826;2023-02-20T13:31:41;5.15;;;2.63;;
26562;SDS011;14217;50.986;5.826;2023-02-20T13:36:47;2.35;;;1.73;;
26562;SDS011;14217;50.986;5.826;2023-02-20T13:46:59;2.97;;;2.15;;
26562;SDS011;14217;50.986;5.826;2023-02-20T13:52:25;6.25;;;3.25;;
26562;SDS011;14217;50.986;5.826;2023-02-20T14:08:29;7.95;;;2.38;;
26562;SDS011;14217;50.986;5.826;2023-02-20T14:13:31;6.90;;;2.05;;
26562;SDS011;14217;50.986;5.826;2023-02-20T14:18:40;3.15;;;1.88;;
26562;SDS011;14217;50.986;5.826;2023-02-20T14:23:43;5.80;;;2.50;;
26562;SDS011;14217;50.986;5.826;2023-02-20T14:28:47;2.85;;;1.30;;
26562;SDS011;14217;50.986;5.826;2023-02-20T14:33:52;3.00;;;1.27;;
26562;SDS011;14217;50.986;5.826;2023-02-20T14:44:22;7.57;;;1.83;;
26562;SDS011;14217;50.986;5.826;2023-02-20T14:49:26;4.05;;;1.45;;
26562;SDS011;14217;50.986;5.826;2023-02-20T14:54:31;7.13;;;1.65;;
26562;SDS011;14217;50.986;5.826;2023-02-20T14:59:34;3.03;;;1.13;;
26562;SDS011;14217;50.986;5.826;2023-02-20T15:04:48;8.30;;;1.80;;
26562;SDS011;14217;50.986;5.826;2023-02-20T15:09:54;2.22;;;1.15;;
26562;SDS011;14217;50.986;5.826;2023-02-20T15:15:03;2.42;;;1.42;;
26562;SDS011;14217;50.986;5.826;2023-02-20T15:20:42;3.13;;;1.48;;
26562;SDS011;14217;50.986;5.826;2023-02-20T15:25:38;3.83;;;1.45;;
26562;SDS011;14217;50.986;5.826;2023-02-20T15:36:13;1.75;;;1.35;;
26562;SDS011;14217;50.986;5.826;2023-02-20T15:41:18;1.75;;;1.20;;
26562;SDS011;14217;50.986;5.826;2023-02-20T15:46:21;3.83;;;1.23;;
26562;SDS011;14217;50.986;5.826;2023-02-20T15:51:23;1.20;;;1.10;;
26562;SDS011;14217;50.986;5.826;2023-02-20T15:56:27;1.70;;;1.20;;
26562;SDS011;14217;50.986;5.826;2023-02-20T16:01:32;3.95;;;1.00;;
26562;SDS011;14217;50.986;5.826;2023-02-20T16:06:35;1.85;;;1.13;;
26562;SDS011;14217;50.986;5.826;2023-02-20T16:11:40;2.40;;;0.90;;
26562;SDS011;14217;50.986;5.826;2023-02-20T16:16:46;1.50;;;0.93;;
26562;SDS011;14217;50.986;5.826;2023-02-20T16:21:51;1.33;;;1.20;;
26562;SDS011;14217;50.986;5.826;2023-02-20T16:26:59;2.17;;;1.02;;
26562;SDS011;14217;50.986;5.826;2023-02-20T16:37:09;1.48;;;1.17;;
26562;SDS011;14217;50.986;5.826;2023-02-20T16:42:17;2.25;;;1.00;;
26562;SDS011;14217;50.986;5.826;2023-02-20T16:47:23;2.25;;;0.93;;
26562;SDS011;14217;50.986;5.826;2023-02-20T16:52:31;1.48;;;0.93;;
26562;SDS011;14217;50.986;5.826;2023-02-20T16:57:33;1.90;;;1.17;;
26562;SDS011;14217;50.986;5.826;2023-02-20T17:02:35;2.55;;;1.10;;
26562;SDS011;14217;50.986;5.826;2023-02-20T17:07:37;1.10;;;1.00;;
26562;SDS011;14217;50.986;5.826;2023-02-20T17:12:39;1.83;;;1.10;;
26562;SDS011;14217;50.986;5.826;2023-02-20T17:17:42;2.40;;;1.33;;
26562;SDS011;14217;50.986;5.826;2023-02-20T17:22:44;1.33;;;1.13;;
26562;SDS011;14217;50.986;5.826;2023-02-20T17:28:03;1.33;;;0.73;;
26562;SDS011;14217;50.986;5.826;2023-02-20T17:33:05;0.85;;;0.85;;
26562;SDS011;14217;50.986;5.826;2023-02-20T17:38:07;1.65;;;1.10;;
26562;SDS011;14217;50.986;5.826;2023-02-20T17:43:09;1.33;;;0.80;;
26562;SDS011;14217;50.986;5.826;2023-02-20T17:48:11;1.25;;;0.88;;
26562;SDS011;14217;50.986;5.826;2023-02-20T17:53:13;1.75;;;1.00;;
26562;SDS011;14217;50.986;5.826;2023-02-20T17:58:15;1.13;;;1.02;;
26562;SDS011;14217;50.986;5.826;2023-02-20T18:03:17;6.15;;;0.85;;
26562;SDS011;14217;50.986;5.826;2023-02-20T18:08:20;0.77;;;0.77;;
26562;SDS011;14217;50.986;5.826;2023-02-20T18:13:22;3.50;;;0.90;;
26562;SDS011;14217;50.986;5.826;2023-02-20T18:18:24;0.70;;;0.70;;
26562;SDS011;14217;50.986;5.826;2023-02-20T18:23:26;1.38;;;0.80;;
26562;SDS011;14217;50.986;5.826;2023-02-20T18:28:28;0.63;;;0.60;;
26562;SDS011;14217;50.986;5.826;2023-02-20T18:33:30;0.82;;;0.82;;
26562;SDS011;14217;50.986;5.826;2023-02-20T18:38:32;0.98;;;0.88;;
26562;SDS011;14217;50.986;5.826;2023-02-20T18:43:34;4.82;;;0.70;;
26562;SDS011;14217;50.986;5.826;2023-02-20T18:48:36;1.15;;;0.80;;
26562;SDS011;14217;50.986;5.826;2023-02-20T18:53:38;1.63;;;0.90;;
26562;SDS011;14217;50.986;5.826;2023-02-20T18:58:39;0.75;;;0.70;;
26562;SDS011;14217;50.986;5.826;2023-02-20T19:03:41;1.70;;;0.98;;
26562;SDS011;14217;50.986;5.826;2023-02-20T19:08:43;1.65;;;1.15;;
26562;SDS011;14217;50.986;5.826;2023-02-20T19:13:45;1.15;;;0.98;;
26562;SDS011;14217;50.986;5.826;2023-02-20T19:18:47;1.55;;;0.90;;
26562;SDS011;14217;50.986;5.826;2023-02-20T19:23:51;2.00;;;1.08;;
26562;SDS011;14217;50.986;5.826;2023-02-20T19:28:53;2.10;;;1.27;;
26562;SDS011;14217;50.986;5.826;2023-02-20T19:33:55;1.67;;;0.57;;
26562;SDS011;14217;50.986;5.826;2023-02-20T19:38:57;0.90;;;0.73;;
26562;SDS011;14217;50.986;5.826;2023-02-20T19:43:59;1.35;;;1.20;;
26562;SDS011;14217;50.986;5.826;2023-02-20T19:49:01;1.00;;;0.90;;
26562;SDS011;14217;50.986;5.826;2023-02-20T19:54:10;1.70;;;0.75;;
26562;SDS011;14217;50.986;5.826;2023-02-20T19:59:12;1.35;;;0.88;;
26562;SDS011;14217;50.986;5.826;2023-02-20T20:04:15;0.93;;;0.80;;
26562;SDS011;14217;50.986;5.826;2023-02-20T20:09:18;0.80;;;0.65;;
26562;SDS011;14217;50.986;5.826;2023-02-20T20:14:36;3.15;;;0.80;;
26562;SDS011;14217;50.986;5.826;2023-02-20T20:19:38;1.30;;;0.75;;
26562;SDS011;14217;50.986;5.826;2023-02-20T20:24:49;0.90;;;0.60;;
26562;SDS011;14217;50.986;5.826;2023-02-20T20:29:52;1.85;;;1.15;;
26562;SDS011;14217;50.986;5.826;2023-02-20T20:34:54;2.75;;;1.02;;
26562;SDS011;14217;50.986;5.826;2023-02-20T20:39:56;1.38;;;0.73;;
26562;SDS011;14217;50.986;5.826;2023-02-20T20:44:59;1.58;;;0.80;;
26562;SDS011;14217;50.986;5.826;2023-02-20T20:50:02;1.25;;;0.60;;
26562;SDS011;14217;50.986;5.826;2023-02-20T20:55:04;1.17;;;0.85;;
26562;SDS011;14217;50.986;5.826;2023-02-20T21:00:09;1.00;;;0.70;;
26562;SDS011;14217;50.986;5.826;2023-02-20T21:05:23;2.10;;;0.77;;
26562;SDS011;14217;50.986;5.826;2023-02-20T21:10:28;0.75;;;0.70;;
26562;SDS011;14217;50.986;5.826;2023-02-20T21:15:31;5.95;;;0.85;;
26562;SDS011;14217;50.986;5.826;2023-02-20T21:20:34;4.93;;;0.90;;
26562;SDS011;14217;50.986;5.826;2023-02-20T21:25:36;3.25;;;1.30;;
26562;SDS011;14217;50.986;5.826;2023-02-20T21:30:39;0.73;;;0.68;;
26562;SDS011;14217;50.986;5.826;2023-02-20T21:35:41;2.35;;;1.05;;
26562;SDS011;14217;50.986;5.826;2023-02-20T21:40:43;0.80;;;0.70;;
26562;SDS011;14217;50.986;5.826;2023-02-20T21:45:45;2.08;;;1.20;;
26562;SDS011;14217;50.986;5.826;2023-02-20T21:50:48;1.45;;;1.25;;
26562;SDS011;14217;50.986;5.826;2023-02-20T21:55:52;2.95;;;1.25;;
26562;SDS011;14217;50.986;5.826;2023-02-20T22:00:53;3.10;;;2.05;;
26562;SDS011;14217;50.986;5.826;2023-02-20T22:05:55;3.30;;;1.35;;
26562;SDS011;14217;50.986;5.826;2023-02-20T22:10:57;3.85;;;1.23;;
26562;SDS011;14217;50.986;5.826;2023-02-20T22:16:19;3.33;;;2.15;;
26562;SDS011;14217;50.986;5.826;2023-02-20T22:21:40;16.48;;;2.25;;
26562;SDS011;14217;50.986;5.826;2023-02-20T22:27:01;7.45;;;3.25;;
26562;SDS011;14217;50.986;5.826;2023-02-20T22:32:21;2.17;;;1.52;;
26562;SDS011;14217;50.986;5.826;2023-02-20T22:37:45;3.35;;;1.75;;
26562;SDS011;14217;50.986;5.826;2023-02-20T22:43:06;6.68;;;1.80;;
26562;SDS011;14217;50.986;5.826;2023-02-20T22:48:26;4.40;;;1.58;;
26562;SDS011;14217;50.986;5.826;2023-02-20T22:53:46;3.25;;;1.70;;
26562;SDS011;14217;50.986;5.826;2023-02-20T22:59:07;3.25;;;1.23;;
26562;SDS011;14217;50.986;5.826;2023-02-20T23:04:28;9.93;;;2.08;;
26562;SDS011;14217;50.986;5.826;2023-02-20T23:09:49;3.42;;;2.05;;
26562;SDS011;14217;50.986;5.826;2023-02-20T23:15:09;1.45;;;1.35;;
26562;SDS011;14217;50.986;5.826;2023-02-20T23:20:29;2.67;;;1.73;;
26562;SDS011;14217;50.986;5.826;2023-02-20T23:25:50;2.85;;;2.45;;
26562;SDS011;14217;50.986;5.826;2023-02-20T23:31:11;3.05;;;1.83;;
26562;SDS011;14217;50.986;5.826;2023-02-20T23:36:32;3.47;;;1.73;;
26562;SDS011;14217;50.986;5.826;2023-02-20T23:41:52;2.28;;;1.95;;
26562;SDS011;14217;50.986;5.826;2023-02-20T23:47:12;2.92;;;2.00;;
26562;SDS011;14217;50.986;5.826;2023-02-20T23:52:33;4.35;;;2.45;;
26562;SDS011;14217;50.986;5.826;2023-02-20T23:57:53;5.78;;;2.13;;
